createdAt,value
2023-09-12T00:01:14.365Z,6.30
2023-09-12T00:03:42.206Z,5.53
2023-09-12T00:06:09.720Z,6.85
2023-09-12T00:08:37.177Z,5.95
2023-09-12T00:11:07.667Z,6.10
2023-09-12T00:13:35.129Z,6.40
2023-09-12T00:16:03.035Z,6.53
2023-09-12T00:18:31.023Z,5.62
2023-09-12T00:21:00.596Z,6.10
2023-09-12T00:23:28.700Z,6.20
2023-09-12T00:25:56.454Z,5.97
2023-09-12T00:28:23.896Z,6.78
2023-09-12T00:30:53.268Z,7.30
2023-09-12T00:33:21.287Z,7.07
2023-09-12T00:35:48.826Z,6.78
2023-09-12T00:38:16.337Z,7.35
2023-09-12T00:40:44.092Z,7.75
2023-09-12T00:43:12.026Z,7.40
2023-09-12T00:45:39.818Z,7.32
2023-09-12T00:48:08.530Z,7.80
2023-09-12T00:50:36.493Z,7.80
2023-09-12T00:53:04.653Z,7.68
2023-09-12T00:55:34.166Z,7.90
2023-09-12T00:58:02.444Z,8.00
2023-09-12T01:00:30.216Z,8.40
2023-09-12T01:02:58.568Z,8.00
2023-09-12T01:05:26.159Z,8.50
2023-09-12T01:07:53.894Z,7.28
2023-09-12T01:10:21.654Z,7.75
2023-09-12T01:12:49.149Z,7.53
2023-09-12T01:15:17.719Z,8.02
2023-09-12T01:17:46.466Z,7.40
2023-09-12T01:20:17.581Z,8.43
2023-09-12T01:22:48.370Z,7.78
2023-09-12T01:25:40.478Z,7.18
2023-09-12T01:28:10.631Z,7.25
2023-09-12T01:30:40.551Z,6.82
2023-09-12T01:33:09.200Z,7.30
2023-09-12T01:35:36.709Z,7.00
2023-09-12T01:38:04.409Z,6.82
2023-09-12T01:40:52.246Z,6.53
2023-09-12T01:43:23.066Z,7.00
2023-09-12T01:45:56.514Z,6.75
2023-09-12T01:48:28.047Z,7.05
2023-09-12T01:50:55.961Z,7.37
2023-09-12T01:53:23.739Z,6.97
2023-09-12T01:55:51.319Z,6.60
2023-09-12T01:58:19.185Z,8.07
2023-09-12T02:00:46.705Z,6.60
2023-09-12T02:03:14.748Z,7.70
2023-09-12T02:05:42.398Z,6.82
2023-09-12T02:08:09.919Z,7.85
2023-09-12T02:10:37.716Z,7.20
2023-09-12T02:13:05.213Z,7.80
2023-09-12T02:15:32.886Z,7.97
2023-09-12T02:18:01.071Z,8.13
2023-09-12T02:20:28.922Z,8.75
2023-09-12T02:22:56.501Z,8.18
2023-09-12T02:25:23.948Z,7.35
2023-09-12T02:27:51.738Z,8.23
2023-09-12T02:30:19.570Z,8.55
2023-09-12T02:32:47.121Z,8.73
2023-09-12T02:35:15.053Z,8.23
2023-09-12T02:37:42.830Z,7.85
2023-09-12T02:40:13.055Z,8.68
2023-09-12T02:42:40.996Z,8.10
2023-09-12T02:45:08.921Z,8.50
2023-09-12T02:47:36.919Z,8.82
2023-09-12T02:50:05.549Z,8.18
2023-09-12T02:52:33.212Z,8.88
2023-09-12T02:55:00.772Z,8.52
2023-09-12T02:57:28.560Z,7.97
2023-09-12T02:59:56.234Z,8.13
2023-09-12T03:02:23.827Z,8.40
2023-09-12T03:04:52.250Z,9.00
2023-09-12T03:07:19.672Z,7.97
2023-09-12T03:09:51.469Z,8.38
2023-09-12T03:12:19.258Z,8.48
2023-09-12T03:14:46.711Z,8.75
2023-09-12T03:17:14.531Z,8.32
2023-09-12T03:19:42.249Z,8.05
2023-09-12T03:22:09.954Z,8.75
2023-09-12T03:24:37.422Z,8.40
2023-09-12T03:27:05.368Z,8.73
2023-09-12T03:29:34.295Z,7.20
2023-09-12T03:32:01.865Z,8.57
2023-09-12T03:34:29.681Z,8.07
2023-09-12T03:36:57.109Z,8.02
2023-09-12T03:39:24.570Z,8.18
2023-09-12T03:41:52.360Z,7.70
2023-09-12T03:44:19.977Z,8.52
2023-09-12T03:46:47.555Z,7.80
2023-09-12T03:49:15.325Z,8.63
2023-09-12T03:51:42.846Z,7.93
2023-09-12T03:54:10.431Z,8.18
2023-09-12T03:56:38.406Z,8.07
2023-09-12T03:59:06.625Z,8.32
2023-09-12T04:01:34.146Z,8.93
2023-09-12T04:04:04.174Z,8.13
2023-09-12T04:06:32.193Z,8.98
2023-09-12T04:08:59.767Z,8.68
2023-09-12T04:11:35.770Z,7.87
2023-09-12T04:14:07.560Z,8.57
2023-09-12T04:16:35.447Z,7.28
2023-09-12T04:19:04.390Z,8.70
2023-09-12T04:21:32.166Z,7.90
2023-09-12T04:24:01.112Z,7.18
2023-09-12T04:26:28.613Z,8.18
2023-09-12T04:28:56.142Z,7.75
2023-09-12T04:31:24.037Z,7.05
2023-09-12T04:33:54.830Z,8.27
2023-09-12T04:36:23.795Z,7.60
2023-09-12T04:38:51.620Z,7.68
2023-09-12T04:41:19.173Z,8.40
2023-09-12T04:43:46.678Z,7.72
2023-09-12T04:46:14.886Z,8.15
2023-09-12T04:48:42.725Z,7.50
2023-09-12T04:51:10.613Z,7.43
2023-09-12T04:53:38.440Z,8.05
2023-09-12T04:56:07.577Z,7.20
2023-09-12T04:58:35.138Z,7.43
2023-09-12T05:01:03.614Z,7.43
2023-09-12T05:03:31.263Z,7.43
2023-09-12T05:05:59.335Z,7.40
2023-09-12T05:08:27.237Z,6.97
2023-09-12T05:10:54.886Z,6.82
2023-09-12T05:13:22.521Z,6.93
2023-09-12T05:15:50.617Z,6.12
2023-09-12T05:18:18.524Z,6.70
2023-09-12T05:20:46.440Z,7.20
2023-09-12T05:23:14.161Z,6.65
2023-09-12T05:25:41.771Z,6.57
2023-09-12T05:28:09.364Z,6.78
2023-09-12T05:30:37.445Z,7.10
2023-09-12T05:33:05.233Z,6.45
2023-09-12T05:35:33.325Z,8.40
2023-09-12T05:38:01.089Z,6.45
2023-09-12T05:40:28.555Z,6.65
2023-09-12T05:42:56.059Z,7.32
2023-09-12T05:45:24.593Z,6.97
2023-09-12T05:47:53.145Z,6.07
2023-09-12T05:50:20.743Z,7.25
2023-09-12T05:52:48.725Z,7.43
2023-09-12T05:55:16.767Z,6.68
2023-09-12T05:57:44.572Z,6.47
2023-09-12T06:00:13.331Z,7.35
2023-09-12T06:02:43.356Z,6.78
2023-09-12T06:05:10.989Z,6.90
2023-09-12T06:07:41.970Z,7.18
2023-09-12T06:10:12.717Z,7.57
2023-09-12T06:12:40.210Z,7.68
2023-09-12T06:15:08.065Z,8.38
2023-09-12T06:17:35.930Z,8.00
2023-09-12T06:20:07.459Z,7.45
2023-09-12T06:22:35.267Z,7.68
2023-09-12T06:25:03.070Z,7.40
2023-09-12T06:27:31.981Z,7.80
2023-09-12T06:29:59.527Z,7.95
2023-09-12T06:32:27.324Z,7.70
2023-09-12T06:34:54.835Z,8.30
2023-09-12T06:37:22.330Z,7.78
2023-09-12T06:39:51.958Z,7.15
2023-09-12T06:42:20.030Z,7.45
2023-09-12T06:44:47.499Z,7.87
2023-09-12T06:47:15.249Z,7.03
2023-09-12T06:49:42.784Z,7.50
2023-09-12T06:52:10.893Z,7.50
2023-09-12T06:54:38.847Z,6.97
2023-09-12T06:57:06.342Z,6.90
2023-09-12T06:59:34.050Z,7.28
2023-09-12T07:02:01.844Z,7.05
2023-09-12T07:04:29.341Z,7.30
2023-09-12T07:06:56.862Z,7.28
2023-09-12T07:09:25.812Z,7.53
2023-09-12T07:11:53.508Z,7.75
2023-09-12T07:14:21.965Z,7.47
2023-09-12T07:16:49.658Z,7.97
2023-09-12T07:19:17.173Z,7.37
2023-09-12T07:21:44.698Z,7.90
2023-09-12T07:24:12.582Z,7.25
2023-09-12T07:26:40.171Z,7.50
2023-09-12T07:29:08.298Z,7.65
2023-09-12T07:31:36.196Z,7.80
2023-09-12T07:34:05.008Z,7.53
2023-09-12T07:36:34.314Z,8.35
2023-09-12T07:39:02.144Z,7.65
2023-09-12T07:41:30.031Z,6.97
2023-09-12T07:43:57.528Z,8.25
2023-09-12T07:46:25.398Z,8.02
2023-09-12T07:48:53.893Z,7.43
2023-09-12T07:51:21.522Z,7.37
2023-09-12T07:53:49.543Z,7.57
2023-09-12T07:56:16.985Z,7.65
2023-09-12T07:58:44.415Z,7.37
2023-09-12T08:01:12.216Z,7.12
2023-09-12T08:03:41.423Z,7.72
2023-09-12T08:06:09.777Z,7.35
2023-09-12T08:08:37.250Z,7.25
2023-09-12T08:11:05.098Z,7.35
2023-09-12T08:13:32.560Z,7.50
2023-09-12T08:16:00.530Z,8.07
2023-09-12T08:18:30.824Z,7.18
2023-09-12T08:20:58.702Z,6.82
2023-09-12T08:23:26.312Z,7.40
2023-09-12T08:25:54.097Z,6.95
2023-09-12T08:28:21.558Z,6.93
2023-09-12T08:30:49.160Z,6.57
2023-09-12T08:33:17.096Z,7.03
2023-09-12T08:35:44.684Z,7.50
2023-09-12T08:38:13.053Z,7.12
2023-09-12T08:40:41.727Z,7.55
2023-09-12T08:43:09.722Z,7.05
2023-09-12T08:45:37.318Z,6.70
2023-09-12T08:48:05.865Z,7.30
2023-09-12T08:50:35.260Z,7.15
2023-09-12T08:53:07.102Z,7.60
2023-09-12T08:55:37.689Z,7.45
2023-09-12T08:58:06.511Z,7.97
2023-09-12T09:00:35.080Z,7.07
2023-09-12T09:03:04.137Z,7.72
2023-09-12T09:05:32.052Z,7.75
2023-09-12T09:08:00.263Z,7.37
2023-09-12T09:10:46.771Z,7.68
2023-09-12T09:13:17.505Z,7.50
2023-09-12T09:15:45.309Z,7.80
2023-09-12T09:18:13.874Z,7.50
2023-09-12T09:20:42.608Z,6.80
2023-09-12T09:23:11.883Z,7.35
2023-09-12T09:25:44.448Z,5.72
2023-09-12T09:28:20.871Z,5.25
2023-09-12T09:30:50.310Z,5.37
2023-09-12T09:33:18.293Z,5.20
2023-09-12T09:35:50.250Z,6.50
2023-09-12T09:38:20.827Z,6.03
2023-09-12T09:40:49.305Z,5.28
2023-09-12T09:43:23.802Z,5.25
2023-09-12T09:45:51.944Z,5.62
2023-09-12T09:48:24.062Z,5.62
2023-09-12T09:50:53.812Z,6.22
2023-09-12T09:53:27.784Z,6.82
2023-09-12T09:56:12.647Z,5.40
2023-09-12T09:58:48.338Z,5.13
2023-09-12T10:01:24.778Z,6.32
2023-09-12T10:03:52.715Z,5.72
2023-09-12T10:06:21.101Z,5.40
2023-09-12T10:08:53.021Z,5.53
2023-09-12T10:11:24.136Z,5.47
2023-09-12T10:13:56.883Z,4.87
2023-09-12T10:16:32.729Z,5.28
2023-09-12T10:19:28.165Z,5.82
2023-09-12T10:21:59.037Z,5.30
2023-09-12T10:24:28.808Z,5.32
2023-09-12T10:26:57.068Z,6.18
2023-09-12T10:29:24.526Z,5.47
2023-09-12T10:31:52.463Z,5.35
2023-09-12T10:34:21.431Z,5.55
2023-09-12T10:36:49.168Z,5.05
2023-09-12T10:39:16.913Z,6.00
2023-09-12T10:41:44.718Z,4.75
2023-09-12T10:44:15.473Z,4.95
2023-09-12T10:46:43.823Z,4.78
2023-09-12T10:49:13.073Z,5.15
2023-09-12T10:51:41.814Z,5.10
2023-09-12T10:54:10.909Z,4.55
2023-09-12T10:56:38.606Z,4.78
2023-09-12T10:59:05.989Z,4.68
2023-09-12T11:01:34.822Z,5.30
2023-09-12T11:04:21.217Z,4.97
2023-09-12T11:06:49.198Z,4.47
2023-09-12T11:09:26.466Z,4.60
2023-09-12T11:12:04.114Z,4.07
2023-09-12T11:14:33.281Z,4.03
2023-09-12T11:17:10.038Z,4.40
2023-09-12T11:19:50.612Z,3.87
2023-09-12T11:22:25.257Z,4.00
2023-09-12T11:24:53.722Z,4.05
2023-09-12T11:27:21.353Z,4.75
2023-09-12T11:29:49.102Z,4.60
2023-09-12T11:32:32.950Z,4.37
2023-09-12T11:35:01.246Z,4.78
2023-09-12T11:37:30.867Z,4.30
2023-09-12T11:40:01.238Z,4.07
2023-09-12T11:42:29.097Z,4.50
2023-09-12T11:44:57.027Z,4.32
2023-09-12T11:47:24.581Z,4.50
2023-09-12T11:49:52.432Z,4.28
2023-09-12T11:52:21.320Z,4.18
2023-09-12T11:54:49.531Z,4.47
2023-09-12T11:57:17.747Z,4.45
2023-09-12T11:59:46.431Z,4.18
2023-09-12T12:02:14.940Z,4.03
2023-09-12T12:04:43.080Z,4.43
2023-09-12T12:07:11.865Z,4.07
2023-09-12T12:09:39.953Z,4.32
2023-09-12T12:12:15.195Z,4.37
2023-09-12T12:14:42.986Z,4.70
2023-09-12T12:17:11.466Z,4.20
2023-09-12T12:19:39.957Z,4.68
2023-09-12T12:22:08.882Z,4.53
2023-09-12T12:24:46.748Z,4.65
2023-09-12T12:27:17.529Z,4.22
2023-09-12T12:29:46.656Z,4.30
2023-09-12T12:32:17.078Z,4.28
2023-09-12T12:35:10.622Z,4.65
2023-09-12T12:37:38.328Z,4.60
2023-09-12T12:40:07.131Z,4.45
2023-09-12T12:42:48.263Z,3.95
2023-09-12T12:45:23.302Z,4.50
2023-09-12T12:47:59.550Z,4.55
2023-09-12T12:50:27.870Z,4.55
2023-09-12T12:52:55.388Z,3.97
2023-09-12T12:55:23.005Z,4.15
2023-09-12T12:57:50.769Z,4.00
2023-09-12T13:00:20.120Z,4.60
2023-09-12T13:02:47.806Z,4.62
2023-09-12T13:05:29.725Z,5.03
2023-09-12T13:07:57.350Z,4.50
2023-09-12T13:10:25.220Z,4.30
2023-09-12T13:12:52.833Z,4.30
2023-09-12T13:15:20.380Z,4.75
2023-09-12T13:17:48.170Z,4.40
2023-09-12T13:20:15.675Z,5.07
2023-09-12T13:22:44.527Z,4.43
2023-09-12T13:25:12.427Z,4.82
2023-09-12T13:27:40.024Z,4.40
2023-09-12T13:30:08.100Z,3.87
2023-09-12T13:32:35.953Z,4.50
2023-09-12T13:35:03.995Z,4.62
2023-09-12T13:37:32.039Z,4.80
2023-09-12T13:40:00.144Z,4.43
2023-09-12T13:42:32.107Z,4.68
2023-09-12T13:44:59.970Z,4.45
2023-09-12T13:47:27.445Z,4.80
2023-09-12T13:49:54.958Z,4.47
2023-09-12T13:52:22.789Z,4.35
2023-09-12T13:54:50.367Z,4.40
2023-09-12T13:57:18.104Z,4.20
2023-09-12T13:59:46.874Z,4.40
2023-09-12T14:02:15.008Z,4.12
2023-09-12T14:04:44.227Z,3.95
2023-09-12T14:07:12.468Z,4.53
2023-09-12T14:09:41.135Z,4.40
2023-09-12T14:12:21.125Z,4.70
2023-09-12T14:15:04.451Z,4.40
2023-09-12T14:17:36.594Z,4.18
2023-09-12T14:20:05.165Z,4.70
2023-09-12T14:22:33.239Z,4.60
2023-09-12T14:25:03.137Z,4.60
2023-09-12T14:27:34.254Z,4.57
2023-09-12T14:30:04.624Z,4.45
2023-09-12T14:32:33.058Z,4.03
2023-09-12T14:35:00.773Z,4.50
2023-09-12T14:37:29.669Z,4.50
2023-09-12T14:39:57.772Z,4.85
2023-09-12T14:42:26.619Z,4.15
2023-09-12T14:44:54.407Z,4.03
2023-09-12T14:47:22.997Z,4.00
2023-09-12T14:49:52.495Z,4.25
2023-09-12T14:52:26.974Z,4.62
2023-09-12T14:57:25.376Z,5.00
2023-09-12T14:59:53.573Z,4.97
2023-09-12T15:02:21.734Z,4.25
2023-09-12T15:04:51.040Z,4.30
2023-09-12T15:07:19.279Z,4.95
2023-09-12T15:09:47.575Z,4.82
2023-09-12T15:12:16.246Z,4.70
2023-09-12T15:14:44.289Z,4.68
2023-09-12T15:17:12.237Z,4.25
2023-09-12T15:19:40.329Z,4.37
2023-09-12T15:22:08.183Z,4.87
2023-09-12T15:24:35.900Z,4.45
2023-09-12T15:27:04.645Z,4.68
2023-09-12T15:29:32.615Z,4.97
2023-09-12T15:32:01.553Z,4.32
2023-09-12T15:34:29.483Z,4.78
2023-09-12T15:39:43.694Z,4.65
2023-09-12T15:42:24.770Z,4.45
2023-09-12T15:45:02.670Z,4.78
2023-09-12T15:47:32.469Z,5.60
2023-09-12T15:50:01.673Z,4.68
2023-09-12T15:52:29.780Z,5.30
2023-09-12T15:54:57.890Z,5.10
2023-09-12T15:57:26.130Z,4.72
2023-09-12T15:59:54.045Z,5.30
2023-09-12T16:02:22.197Z,5.30
2023-09-12T16:04:50.318Z,4.68
2023-09-12T16:07:18.945Z,5.05
2023-09-12T16:09:48.521Z,5.40
2023-09-12T16:12:16.598Z,5.25
2023-09-12T16:14:44.459Z,4.62
2023-09-12T16:17:12.229Z,5.30
2023-09-12T16:19:40.733Z,5.68
2023-09-12T16:22:11.075Z,4.65
2023-09-12T16:24:39.319Z,4.75
2023-09-12T16:27:08.211Z,5.43
2023-09-12T16:29:37.531Z,5.00
2023-09-12T16:32:06.247Z,5.55
2023-09-12T16:34:36.093Z,5.40
2023-09-12T16:37:04.174Z,5.25
2023-09-12T16:39:35.490Z,5.72
2023-09-12T16:42:04.622Z,5.07
2023-09-12T16:44:32.532Z,4.57
2023-09-12T16:47:00.577Z,5.35
2023-09-12T16:49:29.505Z,4.40
2023-09-12T16:51:58.573Z,5.22
2023-09-12T16:54:28.571Z,4.53
2023-09-12T16:56:58.640Z,4.62
2023-09-12T16:59:26.543Z,4.70
2023-09-12T17:01:54.765Z,4.60
2023-09-12T17:04:23.026Z,5.37
2023-09-12T17:06:50.971Z,5.20
2023-09-12T17:09:19.890Z,4.97
2023-09-12T17:11:49.266Z,5.12
2023-09-12T17:14:17.820Z,5.28
2023-09-12T17:16:46.565Z,5.03
2023-09-12T17:19:15.244Z,5.07
2023-09-12T17:21:43.381Z,5.37
2023-09-12T17:24:16.823Z,4.82
2023-09-12T17:26:44.883Z,5.12
2023-09-12T17:29:13.583Z,6.07
2023-09-12T17:31:41.994Z,5.50
2023-09-12T17:34:10.299Z,5.35
2023-09-12T17:36:45.093Z,5.40
2023-09-12T17:39:17.450Z,4.93
2023-09-12T17:41:46.668Z,5.57
2023-09-12T17:44:14.126Z,5.10
2023-09-12T17:46:42.310Z,5.25
2023-09-12T17:49:11.940Z,5.40
2023-09-12T17:51:43.930Z,5.10
2023-09-12T17:54:12.099Z,5.28
2023-09-12T17:56:41.989Z,4.80
2023-09-12T17:59:13.035Z,5.55
2023-09-12T18:01:44.512Z,4.78
2023-09-12T18:04:14.866Z,5.30
2023-09-12T18:06:46.998Z,4.95
2023-09-12T18:09:15.311Z,4.80
2023-09-12T18:11:42.824Z,5.80
2023-09-12T18:14:12.366Z,5.37
2023-09-12T18:16:41.039Z,5.18
2023-09-12T18:19:11.375Z,5.47
2023-09-12T18:21:39.254Z,5.12
2023-09-12T18:24:09.362Z,4.90
2023-09-12T18:26:38.994Z,4.87
2023-09-12T18:29:10.585Z,5.75
2023-09-12T18:31:40.973Z,4.70
2023-09-12T18:34:11.376Z,4.82
2023-09-12T18:36:42.868Z,4.60
2023-09-12T18:39:12.422Z,5.20
2023-09-12T18:41:41.604Z,5.47
2023-09-12T18:44:16.967Z,4.75
2023-09-12T18:46:45.596Z,5.10
2023-09-12T18:49:16.952Z,4.45
2023-09-12T18:51:45.547Z,5.00
2023-09-12T18:54:21.380Z,4.50
2023-09-12T18:56:51.627Z,5.28
2023-09-12T18:59:22.692Z,5.68
2023-09-12T19:01:52.698Z,5.47
2023-09-12T19:04:27.292Z,4.55
2023-09-12T19:06:59.731Z,5.20
2023-09-12T19:09:28.628Z,4.47
2023-09-12T19:11:57.260Z,4.90
2023-09-12T19:14:27.696Z,4.93
2023-09-12T19:16:56.552Z,5.40
2023-09-12T19:19:25.689Z,6.45
2023-09-12T19:21:58.370Z,5.32
2023-09-12T19:24:27.892Z,4.62
2023-09-12T19:26:56.833Z,4.60
2023-09-12T19:29:26.458Z,4.45
2023-09-12T19:31:55.803Z,5.20
2023-09-12T19:34:26.544Z,4.93
2023-09-12T19:36:56.555Z,5.15
2023-09-12T19:39:26.438Z,4.78
2023-09-12T19:41:56.610Z,5.37
2023-09-12T19:44:25.330Z,4.70
2023-09-12T19:46:53.877Z,4.30
2023-09-12T19:49:25.069Z,4.55
2023-09-12T19:51:54.305Z,4.65
2023-09-12T19:54:24.520Z,4.97
2023-09-12T19:56:54.114Z,4.62
2023-09-12T19:59:25.460Z,4.78
2023-09-12T20:01:56.983Z,4.90
2023-09-12T20:04:33.396Z,4.75
2023-09-12T20:07:06.577Z,5.37
2023-09-12T20:09:36.014Z,4.87
2023-09-12T20:12:04.508Z,4.20
2023-09-12T20:14:32.298Z,5.03
2023-09-12T20:17:00.875Z,4.40
2023-09-12T20:19:30.796Z,5.78
2023-09-12T20:21:58.549Z,4.60
2023-09-12T20:24:28.250Z,5.78
2023-09-12T20:26:56.528Z,4.87
2023-09-12T20:29:24.249Z,4.15
2023-09-12T20:31:52.521Z,4.57
2023-09-12T20:34:21.294Z,5.60
2023-09-12T20:36:50.750Z,5.05
2023-09-12T20:39:26.745Z,4.68
2023-09-12T20:42:07.531Z,5.10
2023-09-12T20:44:36.385Z,5.20
2023-09-12T20:47:04.614Z,5.43
2023-09-12T20:49:33.011Z,5.22
2023-09-12T20:52:02.750Z,5.20
2023-09-12T20:54:30.960Z,5.68
2023-09-12T20:56:58.643Z,5.75
2023-09-12T20:59:27.037Z,5.15
2023-09-12T21:01:54.943Z,4.93
2023-09-12T21:04:22.464Z,5.18
2023-09-12T21:06:50.265Z,4.87
2023-09-12T21:09:17.866Z,5.15
2023-09-12T21:11:46.503Z,4.60
2023-09-12T21:14:15.185Z,4.53
2023-09-12T21:16:42.756Z,5.05
2023-09-12T21:19:10.368Z,5.15
2023-09-12T21:21:38.176Z,4.87
2023-09-12T21:24:05.762Z,5.32
2023-09-12T21:26:33.195Z,5.03
2023-09-12T21:29:00.915Z,5.10
2023-09-12T21:31:28.491Z,5.37
2023-09-12T21:33:56.027Z,5.65
2023-09-12T21:36:24.910Z,5.20
2023-09-12T21:38:52.350Z,5.60
2023-09-12T21:41:19.817Z,5.18
2023-09-12T21:43:47.552Z,5.35
2023-09-12T21:46:15.162Z,4.95
2023-09-12T21:48:42.667Z,4.70
2023-09-12T21:51:11.919Z,5.20
2023-09-12T21:53:39.570Z,5.28
2023-09-12T21:56:07.042Z,4.72
2023-09-12T21:58:34.897Z,4.65
2023-09-12T22:01:02.460Z,4.97
2023-09-12T22:03:30.308Z,5.15
2023-09-12T22:05:57.792Z,5.78
2023-09-12T22:08:25.199Z,5.25
2023-09-12T22:10:52.902Z,5.03
2023-09-12T22:13:20.291Z,4.93
2023-09-12T22:15:47.936Z,4.62
2023-09-12T22:18:15.729Z,4.75
2023-09-12T22:20:43.136Z,5.78
2023-09-12T22:23:11.512Z,4.65
2023-09-12T22:25:39.230Z,5.07
2023-09-12T22:28:06.781Z,4.50
2023-09-12T22:30:34.270Z,4.90
2023-09-12T22:33:02.029Z,4.80
2023-09-12T22:35:29.514Z,4.87
2023-09-12T22:37:57.325Z,4.72
2023-09-12T22:40:25.006Z,4.78
2023-09-12T22:42:52.487Z,4.82
2023-09-12T22:45:19.932Z,5.20
2023-09-12T22:47:47.765Z,4.82
2023-09-12T22:50:15.211Z,5.68
2023-09-12T22:52:42.633Z,5.35
2023-09-12T22:55:10.397Z,5.65
2023-09-12T22:57:39.310Z,5.85
2023-09-12T23:00:09.673Z,6.60
2023-09-12T23:02:38.069Z,5.80
2023-09-12T23:05:06.107Z,6.12
2023-09-12T23:07:35.326Z,5.30
2023-09-12T23:10:04.774Z,5.05
2023-09-12T23:12:32.348Z,5.60
2023-09-12T23:14:59.919Z,6.10
2023-09-12T23:17:27.602Z,5.53
2023-09-12T23:19:55.112Z,5.18
2023-09-12T23:22:22.917Z,5.00
2023-09-12T23:24:50.683Z,5.18
2023-09-12T23:27:18.237Z,5.00
2023-09-12T23:29:46.074Z,5.57
2023-09-12T23:32:13.717Z,5.85
2023-09-12T23:34:41.327Z,5.00
2023-09-12T23:37:08.826Z,6.05
2023-09-12T23:39:36.813Z,5.97
2023-09-12T23:42:04.406Z,5.50
2023-09-12T23:44:33.390Z,5.35
2023-09-12T23:47:01.406Z,5.37
2023-09-12T23:49:28.978Z,5.10
2023-09-12T23:51:56.468Z,5.37
2023-09-12T23:54:26.332Z,5.07
2023-09-12T23:56:53.831Z,5.47
2023-09-12T23:59:21.269Z,5.12
